200 serials | aiseesoft bluray player registration code

Date Name Success Rate
2009-10-17 06:19:27 Bar Code Pro V6.02 48%
2009-10-17 06:20:25 Code Co-op V4.5c 39%
2009-10-17 06:20:25 Code Visualizer V2.28 41%
2009-10-17 06:20:25 Code Visualizer V2.83 22%
2009-10-17 06:20:25 Code Visualizer V3.01 49%
2009-10-17 06:20:25 CODE-VB V3.03 23%
2009-10-17 06:26:27 Koma-Code TableCalc V1.0 0%
2009-10-17 06:27:02 Lazarus Registration DLL V1.0 59%
2009-10-22 23:27:11 Acohol120% Bluray 0%
2009-10-22 23:27:16 Ahead Nero 8 Bluray/HDDVD Plugin 0%
2009-10-22 23:27:16 Aiseesoft DVD Ripper Serial NO. 32%
2009-10-22 23:27:17 Alchemist Code Generator 1.5.1.1 0%
2009-10-22 23:27:17 Alcohol 120% 5.0 BluRay 100%
2009-10-22 23:27:17 All Player 63%
2009-10-22 23:27:21 Ardamax Keylogger 2.9 Registration 56%
2009-10-22 23:44:50 Bluray Hd Plugin Toast 0%
2009-10-22 23:44:51 BS Player 20%
2009-10-22 23:45:53 Code Co-op 4.2 0%
2009-10-22 23:45:53 Code Pro Evolution 6 62%
2009-10-22 23:45:53 Code Source 34%
2009-10-22 23:45:53 Code Visualizer V2.35 0%
2009-10-22 23:45:53 Code Visualizer V2.64 0%
2009-10-22 23:45:53 Code Visualizer V3.01 0%
2009-10-22 23:45:53 Code-Genie 3.06.11 0%
2009-10-22 23:48:17 Internet Download Manager Registration 50%
2009-10-22 23:48:48 MemoriesonTV Registration 0%
2009-10-22 23:48:49 Microsoft Registration Hacker - 39%
2009-10-22 23:49:02 Norton Internet Security 2005 Registration Guide 0%
2009-10-22 23:49:23 Picture Player 0%
2009-10-22 23:49:24 Player 1.3.2 0%
2009-10-22 23:49:42 Registration Wizard 56%
2009-10-22 23:49:52 Serial Code Ultimate 67%
2009-10-22 23:49:57 SoudForge ALL (No Registration Requiered) 0%
2009-10-22 23:50:00 Stereoscopic Player 0%
2009-10-22 23:50:26 Valve's Registration Armor Key-Gen 60%
2009-10-22 23:50:35 WinAce Free User's Code 54%
2009-10-22 23:50:36 Windows Validation Code 07.01.2006 0%
2009-10-22 23:50:39 Word Of Warcraft Trial Code 60%
2009-10-22 23:50:57 Zero Code Designer V1.5 0%
2009-10-27 17:04:51 xing player 20%
2011-09-08 09:57:37 Access Code Analyzer 1.01 0%
2011-09-08 09:58:40 Acoustica Mixcraft v1.10 Build 15 Registration Info by MaBi 60%
2011-09-08 10:00:27 Adobe Dimensions V3.0 Code 0%
2011-09-08 10:00:27 Adobe File Utilities Code 0%
2011-09-08 10:00:33 Adobe ImageReady v1.0 Code 0%
2011-09-08 10:00:45 Adobe Premiere v5.0 Code 60%
2011-09-08 10:01:05 Advanced Code Editor 3.0.6 0%
2011-09-08 10:02:19 Agent v1.5 Code 0%
2011-09-08 10:04:57 Alchemist Code Generator 1.5.1.1 0%
2011-09-08 10:06:47 AnetHelpTool v4.02 Registration 60%
2011-09-08 10:06:56 Animated Slots v1.3 Code 0%
2011-09-08 10:11:47 Autocad lite R3 Code 0%
2011-09-08 10:18:48 Bar Code 128 v3.0 0%
2011-09-08 10:21:42 Browserola v1.01 Temp. Registration 0%
2011-09-08 10:22:13 ByeLines Registration 60%
2011-09-08 10:24:39 CD Player 0%
2011-09-08 10:25:36 Cheap Date v1.0 Code 0%
2011-09-08 10:25:39 Check-It Professional v5.0 Code 0%
2011-09-08 10:25:41 CheckIt v5.0 Code 0%
2011-09-08 10:25:56 Cheyenne Bitware V4.0 Registration Number 60%
2011-09-08 10:27:32 Code 55%
2011-09-08 10:27:32 Code Assist v1.1 54%
2011-09-08 10:27:32 Code Cache v3.01 0%
2011-09-08 10:27:32 Code Co-Op 3.3b 0%
2011-09-08 10:27:32 Code Co-op 4.2 57%
2011-09-08 10:27:32 Code Counter Pro v1.10 0%
2011-09-08 10:27:32 Code Database v2.2.3 0%
2011-09-08 10:27:32 Code Digger 2.11 0%
2011-09-08 10:27:32 Code Edit Studio 1.0 0%
2011-09-08 10:27:32 Code Keeper v1.0 0%
2011-09-08 10:27:32 Code Lobster 2.1.19 0%
2011-09-08 10:27:32 Code Maker 3.36 0%
2011-09-08 10:27:32 Code Manager v3.0.1 0%
2011-09-08 10:27:36 Code Navigator for C++ 2.01 0%
2011-09-08 10:27:36 Code Print Pro v3.2 0%
2011-09-08 10:27:36 Code Review v5.0 win95 0%
2011-09-08 10:27:36 Code Vault 2.2 0%
2011-09-08 10:27:36 Code Whiz Editor 1.3 0%
2011-09-08 10:27:36 Code Whiz Editor v1.4 0%
2011-09-08 10:27:36 Code Wiz v3.0 0%
2011-09-08 10:27:36 Code Wizard v3.0 P1 0%
2011-09-08 10:27:36 Code-Genie 3.07.17 0%
2011-09-08 10:27:36 Code-Genie 3.11.12 0%
2011-09-08 10:27:36 Code-Genie v1.11.12 by REVENGE 0%
2011-09-08 10:27:36 Code-Genie v3.04.20 0%
2011-09-08 10:27:36 Code-Genie v3.06.11 0%
2011-09-08 10:27:36 Code-Genie v3.11.12 0%
2011-09-08 10:27:36 Code-Genie v4.05.18 by NiTROUS 0%
2011-09-08 10:28:24 Compress & Expand v1.0 Code 0%
2011-09-08 10:31:39 CorelDraw v8.0 Code 67%
2011-09-08 10:31:42 Cosmo Code 2.5 59%
2011-09-08 10:31:42 Cosmo Code v2.5 0%
2011-09-08 10:32:20 Crumbler97 V3.0 Code 0%
2011-09-08 10:42:09 DAS Registration 1.5.2 69%
2011-09-08 10:42:09 DAS Registration For CW5 0%
2011-09-08 10:42:09 DAS Registration v1.5.2 0%
2011-09-08 10:42:34 Debabelizer Pro Code 0%
2011-09-08 10:44:07 Display Destroyer Reg code 0%
2011-09-08 10:44:55 Drive Image V1.0 Code 0%
2011-09-08 10:49:57 ESS Code 0%
2011-09-08 10:49:57 ESS Code v6.7 Win 0%
2011-09-08 10:49:57 ESS-Code 0%
2011-09-08 10:49:57 ESS-Code v7.5 59%
2011-09-08 10:49:57 ESS-Code v7.x 0%
2011-09-08 10:50:43 Extensis PhotoTools v1.1New Code 0%
2011-09-08 10:54:32 File Utilities Code 0%
2011-09-08 10:55:14 Fix It v1.0 Code 100%
2011-09-08 10:56:11 FontLook v3.1 Registration Code 86%
2011-09-08 10:56:17 Forms Plus V2.0 Code 0%
2011-09-08 10:57:42 Ftgate Registration 63%
2011-09-08 11:01:54 G-Code-It 3.0 0%
2011-09-08 11:02:07 Gateway Code for F/X 0%
2011-09-08 11:06:35 Hexer Code 0%
2011-09-08 11:09:29 Hotfax Code 0%
2011-09-08 11:13:17 I-Publish V1.05 Code 0%
2011-09-08 11:15:16 Infodex v2.10 Registration 0%
2011-09-08 11:15:45 InstallShield Professionalv5.1 Code 0%
2011-09-08 11:16:40 Internet Voice Mail Code 0%
2011-09-08 11:21:56 Koma-Code TableCalc 1 0%
2011-09-08 11:24:46 L3ENC Code 0%
2011-09-08 11:25:08 Lazarus Registration DLL v1.0 0%
2011-09-08 11:27:46 Mac Opener v3.0 Registration 57%
2011-09-08 11:29:35 Master Wall Framer Code 0%
2011-09-08 11:29:50 MatLab v6.5 PLP code 0%
2011-09-08 11:30:06 MDB Code Generator v1.0 0%
2011-09-08 11:30:16 MediaBlaze 98 v1.01 Win95/NT User: delphic Registration 0%
2011-09-08 11:31:51 Microsoft Registration Hacker 0%
2011-09-08 11:31:51 Microsoft Registration Hacker - 0%
2011-09-08 11:31:51 Microsoft Registration Hacker MSREGHACK 80%
2011-09-08 11:31:51 Microsoft Registration HackerMSREGHACK 0%
2011-09-08 11:31:51 Microsoft Visual Basic 5 registration cd key 72%
2011-09-08 11:32:07 Microstation v5.xx.xx & 95 FULL REGISTRATION 48%
2011-09-08 11:32:59 mIRC v4.5+ Registration 60%
2011-09-08 11:32:59 mIRC v4.52 Registration 60%
2011-09-08 11:33:45 Morse Code Explorer v1.3 0%
2011-09-08 11:34:59 MS-Office 97 Code 0%
2011-09-08 11:41:46 Netobjects Fusion v3.0 Code 0%
2011-09-08 11:42:43 Nic O'Matic 1.6 Registration Code 50%
2011-09-08 11:42:43 Nic O'Matic v1.6 Registration Code 55%
2011-09-08 12:25:44 My Movies Code 0%
2011-09-08 12:27:50 Pagis Pro '97 Code 0%
2011-09-08 12:33:22 PhotoStudio v2.0 Copy Code 65%
2011-09-08 12:34:24 Player 1.3.2 0%
2011-09-08 12:34:25 Player v1.3.2 0%
2011-09-08 12:34:25 Player v1.5 0%
2011-09-08 12:34:30 Pluck-It Code 0%
2011-09-08 12:34:30 PluckIt! Code 0%
2011-09-08 12:34:57 PolyTrans V1.2E Registration Activator CD-Key 62%
2011-09-08 12:34:57 PolyView v2.9b16 Registration 0%
2011-09-08 12:35:29 Poster v5.2e Code 0%
2011-09-08 12:35:52 PowerBuilder Code Analyzer 2.1b 0%
2011-09-08 12:35:55 PowerDVD Code 55%
2011-09-08 12:36:33 Primal Code 3.1.452 0%
2011-09-08 12:37:02 Quant v2.0 Registration 0%
2011-09-08 12:37:06 Quark Xpress v3.32 Code 0%
2011-09-08 12:37:42 QuickView Plus v4.0 code 0%
2011-09-08 12:38:33 Programming Code Editor 1.7 0%
2011-09-08 12:41:14 Registration Suite 1.0 60%
2011-09-08 12:41:14 Registration Suite v1.0 60%
2011-09-08 12:41:14 Registration Wizard Pro 5.01 0%
2011-09-08 12:41:14 Registration Wizard Pro v5.01 60%
2011-09-08 12:44:09 Royal Flush Pinball Code 0%
2011-09-08 12:45:23 Sax Code Complete 2.0.1686 0%
2011-09-08 12:47:13 Sheridan Code Assist 1.1.21 0%
2011-09-08 12:50:25 Source Code SpellChecker v1.1 0%
2011-09-08 12:53:51 ThumbNailer 4x Code 0%
2011-09-08 12:53:51 ThumbNailer v3.5 Code 0%
2011-09-08 12:54:09 Time Registration (German) 1.10 0%
2011-09-08 12:54:14 TimeSlips 10.5 enterprise - with registration code! 0%
2011-09-08 12:58:00 SSW Code Auditor 13.18 0%
2011-09-08 12:58:00 SSW Code Auditor v6.13 0%
2011-09-08 12:59:30 Super Collapse Registration 100%
2011-09-08 13:13:27 VUEPrint v1.1F Pro Code 0%
2011-09-08 13:16:25 Webber32 v1.5+ Code 0%
2011-09-08 13:16:51 Webspider Code 0%
2011-09-08 13:17:00 WebVCR V1.04 Code 0%
2011-09-08 13:18:56 WinGroove Player 0%
2011-09-08 13:18:59 WinHacker 95 v2.02 Registration 57%
2011-09-08 13:19:15 WinOnCD v1.0 Code 0%
2011-09-08 13:19:29 WinRescue v6.02 Code 0%
2011-09-08 13:23:15 Yipe! II for Windows Registration #154 0%
2011-09-08 13:23:48 Zip Code Book v5.1 0%
2012-12-11 23:35:06 Activation Bluray Disc Authoring Plugin - Nero 10 0%
2012-12-11 23:35:06 Activation Bluray Video Plugin 0%
2012-12-12 00:35:35 Aiseesoft DVD Creator 12%
2012-12-12 00:35:35 Aiseesoft Iphone Ringtonemaker 3.3.20 100%
2012-12-12 00:35:35 Aiseesoft iPod + iPhone PC Suite 11%
2012-12-12 00:35:35 Aiseesoft Studio 0%
2012-12-12 00:35:36 Aiseesoft Total Video Converter platinum 59%
2012-12-12 04:27:41 Bluray Disc Authoring Plugin - Nero 10 0%
2012-12-12 05:06:04 camfrog CODE : 28%
2012-12-12 06:04:17 Code It MP3.Crossfader v1.0 0%
2012-12-12 07:36:58 Diablo II Game Code: 0%
2012-12-12 08:07:32 Download avast 5.0.667 Antivirus registration 0%
2012-12-12 12:07:43 Flash Player 0%
2012-12-12 16:05:36 iTunes Gift Code 12%
2012-12-12 16:57:20 Kickback code 0%
2012-12-12 19:40:26 Microsoft Visual Basic 2008 Express Edition Registration key 20%
2012-12-12 20:02:04 Minecraft Gift Code Original 32%
2012-12-12 20:02:12 Minecraft Goft Code! 0%